createdAt,value
2019-04-13T00:00:01.207Z,9.90
2019-04-13T00:02:44.705Z,9.90
2019-04-13T00:05:54.386Z,9.90
2019-04-13T00:08:27.487Z,9.90
2019-04-13T00:11:06.725Z,9.80
2019-04-13T00:13:39.766Z,9.80
2019-04-13T00:16:12.705Z,9.70
2019-04-13T00:18:45.147Z,9.70
2019-04-13T00:21:17.585Z,9.70
2019-04-13T00:23:49.965Z,9.70
2019-04-13T00:26:23.265Z,9.70
2019-04-13T00:28:56.365Z,9.70
2019-04-13T00:31:29.009Z,9.70
2019-04-13T00:34:01.968Z,9.70
2019-04-13T00:36:34.866Z,9.80
2019-04-13T00:39:09.342Z,9.80
2019-04-13T00:41:42.319Z,9.80
2019-04-13T00:44:15.280Z,9.80
2019-04-13T00:46:47.423Z,9.70
2019-04-13T00:49:20.439Z,9.70
2019-04-13T00:51:52.972Z,9.80
2019-04-13T00:54:26.524Z,9.80
2019-04-13T00:56:59.239Z,9.80
2019-04-13T00:59:31.309Z,9.80
2019-04-13T01:02:04.440Z,9.70
2019-04-13T01:04:36.366Z,9.70
2019-04-13T01:07:08.759Z,9.70
2019-04-13T01:09:41.261Z,9.80
2019-04-13T01:12:14.521Z,9.80
2019-04-13T01:14:47.564Z,9.80
2019-04-13T01:17:20.059Z,9.90
2019-04-13T01:19:53.218Z,9.80
2019-04-13T01:22:24.560Z,9.80
2019-04-13T01:24:57.179Z,9.80
2019-04-13T01:27:29.979Z,9.80
2019-04-13T01:30:02.360Z,9.70
2019-04-13T01:32:35.419Z,9.70
2019-04-13T01:35:08.580Z,9.60
2019-04-13T01:37:41.619Z,9.60
2019-04-13T01:40:14.960Z,9.60
2019-04-13T01:42:48.500Z,9.70
2019-04-13T01:45:21.939Z,9.70
2019-04-13T01:47:57.225Z,9.60
2019-04-13T01:50:29.679Z,9.50
2019-04-13T01:53:02.799Z,9.50
2019-04-13T01:55:35.978Z,9.50
2019-04-13T01:58:09.860Z,9.50
2019-04-13T02:00:55.440Z,9.50
2019-04-13T02:03:27.920Z,9.50
2019-04-13T02:06:06.120Z,9.40
2019-04-13T02:08:59.019Z,9.30
2019-04-13T02:11:35.759Z,9.40
2019-04-13T02:14:07.359Z,9.50
2019-04-13T02:16:40.359Z,9.50
2019-04-13T02:19:12.820Z,9.50
2019-04-13T02:21:45.840Z,9.50
2019-04-13T02:24:19.280Z,9.50
2019-04-13T02:26:52.200Z,9.50
2019-04-13T02:29:25.780Z,9.40
2019-04-13T02:31:59.440Z,9.40
2019-04-13T02:34:31.599Z,9.40
2019-04-13T02:37:04.441Z,9.40
2019-04-13T02:39:36.241Z,9.30
2019-04-13T02:42:09.060Z,9.30
2019-04-13T02:44:41.900Z,9.30
2019-04-13T02:47:14.802Z,9.30
2019-04-13T02:49:47.779Z,9.30
2019-04-13T02:52:21.021Z,9.30
2019-04-13T02:54:53.639Z,9.20
2019-04-13T02:57:25.080Z,9.20
2019-04-13T02:59:58.259Z,9.20
2019-04-13T03:02:30.760Z,9.20
2019-04-13T03:05:03.919Z,9.10
2019-04-13T03:07:36.821Z,9.10
2019-04-13T03:10:10.099Z,9.20
2019-04-13T03:12:43.280Z,9.20
2019-04-13T03:15:16.574Z,9.20
2019-04-13T03:18:17.539Z,9.20
2019-04-13T03:20:50.861Z,9.20
2019-04-13T03:23:23.180Z,9.20
2019-04-13T03:25:55.059Z,9.10
2019-04-13T03:28:28.379Z,9.10
2019-04-13T03:31:01.500Z,9.10
2019-04-13T03:33:34.526Z,9.10
2019-04-13T03:36:07.240Z,9.20
2019-04-13T03:38:39.179Z,9.20
2019-04-13T03:41:13.004Z,9.20
2019-04-13T03:43:45.400Z,9.20
2019-04-13T03:46:18.283Z,9.20
2019-04-13T03:48:51.440Z,9.20
2019-04-13T03:51:24.099Z,9.20
2019-04-13T03:53:56.079Z,9.20
2019-04-13T03:56:28.820Z,9.20
2019-04-13T03:59:01.393Z,9.10
2019-04-13T04:01:34.982Z,9.10
2019-04-13T04:04:07.179Z,9.10
2019-04-13T04:06:40.246Z,9.20
2019-04-13T04:09:12.559Z,9.20
2019-04-13T04:11:44.679Z,9.30
2019-04-13T04:14:17.282Z,9.20
2019-04-13T04:16:49.622Z,9.10
2019-04-13T04:19:23.520Z,9.20
2019-04-13T04:21:56.568Z,9.10
2019-04-13T04:24:28.899Z,9.10
2019-04-13T04:27:01.240Z,9.10
2019-04-13T04:29:34.280Z,9.10
2019-04-13T04:32:07.899Z,9.10
2019-04-13T04:34:40.680Z,9.10
2019-04-13T04:37:11.920Z,9.20
2019-04-13T04:39:45.419Z,9.20
2019-04-13T04:42:18.219Z,9.10
2019-04-13T04:44:50.659Z,9.10
2019-04-13T04:47:22.362Z,9.10
2019-04-13T04:49:54.799Z,9.10
2019-04-13T04:52:27.079Z,9.10
2019-04-13T04:54:59.779Z,9.00
2019-04-13T04:57:33.739Z,9.10
2019-04-13T05:00:07.040Z,9.10
2019-04-13T05:02:39.880Z,9.10
2019-04-13T05:05:12.319Z,9.10
2019-04-13T05:07:44.880Z,9.00
2019-04-13T05:10:17.779Z,9.00
2019-04-13T05:12:48.359Z,9.00
2019-04-13T05:15:21.460Z,9.00
2019-04-13T05:17:53.580Z,9.00
2019-04-13T05:20:26.440Z,9.00
2019-04-13T05:22:59.859Z,9.00
2019-04-13T05:25:32.799Z,9.00
2019-04-13T05:28:05.039Z,9.00
2019-04-13T05:30:35.922Z,9.00
2019-04-13T05:33:08.399Z,9.00
2019-04-13T05:35:42.019Z,9.00
2019-04-13T05:38:15.039Z,9.00
2019-04-13T05:40:48.639Z,8.90
2019-04-13T05:43:21.519Z,8.90
2019-04-13T05:45:54.440Z,9.00
2019-04-13T05:48:25.540Z,9.00
2019-04-13T05:50:58.800Z,9.00
2019-04-13T05:53:31.660Z,9.10
2019-04-13T05:56:04.860Z,9.10
2019-04-13T05:58:36.081Z,9.20
2019-04-13T06:01:08.639Z,9.30
2019-04-13T06:03:40.739Z,9.30
2019-04-13T06:06:13.560Z,9.20
2019-04-13T06:08:45.761Z,9.20
2019-04-13T06:11:18.319Z,9.30
2019-04-13T06:13:50.320Z,9.30
2019-04-13T06:16:22.759Z,9.40
2019-04-13T06:18:55.919Z,9.40
2019-04-13T06:21:28.462Z,9.50
2019-04-13T06:24:01.020Z,9.50
2019-04-13T06:26:34.040Z,9.60
2019-04-13T06:29:07.439Z,9.60
2019-04-13T06:31:58.252Z,9.70
2019-04-13T06:34:38.526Z,9.70
2019-04-13T06:37:12.313Z,9.70
2019-04-13T06:39:43.941Z,9.80
2019-04-13T06:42:17.004Z,9.80
2019-04-13T06:44:49.739Z,9.80
2019-04-13T06:47:22.559Z,9.80
2019-04-13T06:49:56.521Z,9.80
2019-04-13T06:52:29.880Z,9.90
2019-04-13T06:55:02.059Z,9.90
2019-04-13T06:57:34.479Z,9.90
2019-04-13T07:00:11.804Z,9.90
2019-04-13T07:02:42.459Z,10.00
2019-04-13T07:05:15.380Z,10.10
2019-04-13T07:08:24.239Z,10.10
2019-04-13T07:11:13.958Z,10.00
2019-04-13T07:13:53.442Z,10.10
2019-04-13T07:16:35.491Z,10.10
2019-04-13T07:19:08.327Z,10.10
2019-04-13T07:21:40.807Z,10.00
2019-04-13T07:24:13.182Z,10.10
2019-04-13T07:26:46.838Z,10.10
2019-04-13T07:29:22.094Z,10.20
2019-04-13T07:31:53.258Z,10.10
2019-04-13T07:34:25.735Z,10.10
2019-04-13T07:36:58.976Z,10.20
2019-04-13T07:39:31.819Z,10.20
2019-04-13T07:42:05.720Z,10.20
2019-04-13T07:44:46.435Z,10.20
2019-04-13T07:47:38.735Z,10.20
2019-04-13T07:50:28.415Z,10.20
2019-04-13T07:53:04.129Z,10.30
2019-04-13T07:55:37.275Z,10.30
2019-04-13T07:58:10.479Z,10.30
2019-04-13T08:00:45.877Z,10.30
2019-04-13T08:03:18.996Z,10.30
2019-04-13T08:05:51.551Z,10.30
2019-04-13T08:08:24.108Z,10.40
2019-04-13T08:10:56.068Z,10.50
2019-04-13T08:13:27.367Z,10.50
2019-04-13T08:15:59.666Z,10.50
2019-04-13T08:18:39.252Z,10.60
2019-04-13T08:21:12.267Z,10.60
2019-04-13T08:23:56.756Z,10.70
2019-04-13T08:26:28.814Z,10.80
2019-04-13T08:29:00.899Z,10.80
2019-04-13T08:31:33.915Z,10.60
2019-04-13T08:34:07.533Z,10.60
2019-04-13T08:36:40.432Z,10.80
2019-04-13T08:41:51.195Z,10.80
2019-04-13T08:42:18.244Z,10.80
2019-04-13T08:44:23.532Z,10.90
2019-04-13T08:46:56.344Z,11.00
2019-04-13T08:49:28.604Z,11.10
2019-04-13T08:52:01.805Z,11.10
2019-04-13T08:54:34.867Z,11.10
2019-04-13T08:57:07.664Z,11.10
2019-04-13T08:59:39.764Z,11.10
2019-04-13T09:02:12.723Z,11.20
2019-04-13T09:04:44.405Z,11.30
2019-04-13T09:07:16.964Z,11.40
2019-04-13T09:09:50.752Z,11.60
2019-04-13T09:12:24.586Z,11.60
2019-04-13T09:14:59.568Z,11.60
2019-04-13T09:17:37.784Z,11.40
2019-04-13T09:20:16.683Z,11.30
2019-04-13T09:23:06.611Z,11.40
2019-04-13T09:25:39.763Z,11.40
2019-04-13T09:28:12.883Z,11.30
2019-04-13T09:30:46.044Z,11.40
2019-04-13T09:33:19.345Z,11.50
2019-04-13T09:35:51.284Z,11.60
2019-04-13T09:38:23.705Z,11.70
2019-04-13T09:40:54.503Z,11.60
2019-04-13T09:43:34.884Z,11.60
2019-04-13T09:46:07.086Z,11.70
2019-04-13T09:48:40.224Z,11.80
2019-04-13T09:51:12.885Z,11.70
2019-04-13T09:53:48.527Z,11.80
2019-04-13T09:56:20.851Z,11.70
2019-04-13T09:58:54.356Z,11.80
2019-04-13T10:01:26.910Z,11.80
2019-04-13T10:03:58.809Z,11.80
2019-04-13T10:06:31.813Z,12.00
2019-04-13T10:09:08.260Z,11.90
2019-04-13T10:11:45.211Z,12.00
2019-04-13T10:14:47.462Z,11.80
2019-04-13T10:17:38.608Z,11.90
2019-04-13T10:20:11.391Z,12.10
2019-04-13T10:22:44.667Z,12.20
2019-04-13T10:25:17.967Z,12.20
2019-04-13T10:27:49.186Z,12.20
2019-04-13T10:30:21.894Z,12.00
2019-04-13T10:32:54.927Z,11.80
2019-04-13T10:35:27.628Z,11.60
2019-04-13T10:38:00.455Z,11.70
2019-04-13T10:40:33.475Z,11.90
2019-04-13T10:43:06.282Z,12.00
2019-04-13T10:46:02.121Z,12.20
2019-04-13T10:48:52.864Z,12.30
2019-04-13T10:51:33.645Z,12.40
2019-04-13T10:54:04.737Z,12.50
2019-04-13T10:56:38.014Z,12.30
2019-04-13T10:59:10.193Z,12.20
2019-04-13T11:01:42.956Z,12.10
2019-04-13T11:04:16.253Z,12.10
2019-04-13T11:06:52.625Z,12.10
2019-04-13T11:09:22.292Z,12.30
2019-04-13T11:11:54.541Z,12.30
2019-04-13T11:14:27.409Z,12.40
2019-04-13T11:17:00.528Z,12.50
2019-04-13T11:19:35.306Z,12.40
2019-04-13T11:22:07.687Z,12.40
2019-04-13T11:24:40.470Z,12.30
2019-04-13T11:27:13.323Z,12.30
2019-04-13T11:29:46.046Z,12.30
2019-04-13T11:32:18.726Z,12.30
2019-04-13T11:34:51.115Z,12.40
2019-04-13T11:37:22.515Z,12.90
2019-04-13T11:39:55.475Z,13.20
2019-04-13T11:43:01.295Z,13.20
2019-04-13T11:45:51.534Z,13.00
2019-04-13T11:48:37.773Z,13.00
2019-04-13T11:51:31.829Z,13.00
2019-04-13T11:54:04.096Z,12.90
2019-04-13T11:56:37.279Z,12.90
2019-04-13T11:59:09.512Z,12.90
2019-04-13T12:02:12.074Z,12.90
2019-04-13T12:05:05.635Z,12.80
2019-04-13T12:07:47.499Z,13.00
2019-04-13T12:10:47.373Z,13.10
2019-04-13T12:13:32.837Z,13.30
